sensor_id;sensor_type;location;lat;lon;timestamp;temperature;humidity
12426;DHT22;6277;49.824;9.562;2023-06-14T00:02:17;19.20;36.90
12426;DHT22;6277;49.824;9.562;2023-06-14T00:04:42;19.20;36.90
12426;DHT22;6277;49.824;9.562;2023-06-14T00:07:08;19.10;36.90
12426;DHT22;6277;49.824;9.562;2023-06-14T00:09:34;19.10;37.00
12426;DHT22;6277;49.824;9.562;2023-06-14T00:12:00;19.10;37.10
12426;DHT22;6277;49.824;9.562;2023-06-14T00:14:26;19.10;37.20
12426;DHT22;6277;49.824;9.562;2023-06-14T00:16:51;19.00;37.20
12426;DHT22;6277;49.824;9.562;2023-06-14T00:19:24;19.00;37.40
12426;DHT22;6277;49.824;9.562;2023-06-14T00:21:49;19.00;37.50
12426;DHT22;6277;49.824;9.562;2023-06-14T00:24:17;19.00;37.50
12426;DHT22;6277;49.824;9.562;2023-06-14T00:26:42;18.90;37.60
12426;DHT22;6277;49.824;9.562;2023-06-14T00:29:08;18.90;37.70
12426;DHT22;6277;49.824;9.562;2023-06-14T00:31:33;18.90;37.80
12426;DHT22;6277;49.824;9.562;2023-06-14T00:33:59;18.80;37.90
12426;DHT22;6277;49.824;9.562;2023-06-14T00:36:24;18.80;37.90
12426;DHT22;6277;49.824;9.562;2023-06-14T00:38:50;18.80;38.00
12426;DHT22;6277;49.824;9.562;2023-06-14T00:41:15;18.80;38.10
12426;DHT22;6277;49.824;9.562;2023-06-14T00:43:41;18.70;38.20
12426;DHT22;6277;49.824;9.562;2023-06-14T00:46:06;18.70;38.30
12426;DHT22;6277;49.824;9.562;2023-06-14T00:48:33;18.70;38.30
12426;DHT22;6277;49.824;9.562;2023-06-14T00:51:00;18.60;38.40
12426;DHT22;6277;49.824;9.562;2023-06-14T00:53:29;18.60;38.60
12426;DHT22;6277;49.824;9.562;2023-06-14T00:55:56;18.60;38.60
12426;DHT22;6277;49.824;9.562;2023-06-14T00:58:22;18.50;38.80
12426;DHT22;6277;49.824;9.562;2023-06-14T01:00:48;18.50;38.80
12426;DHT22;6277;49.824;9.562;2023-06-14T01:03:14;18.50;38.90
12426;DHT22;6277;49.824;9.562;2023-06-14T01:05:44;18.40;38.90
12426;DHT22;6277;49.824;9.562;2023-06-14T01:10:50;18.40;39.30
12426;DHT22;6277;49.824;9.562;2023-06-14T01:13:38;18.30;40.50
12426;DHT22;6277;49.824;9.562;2023-06-14T01:16:05;18.30;40.20
12426;DHT22;6277;49.824;9.562;2023-06-14T01:18:31;18.30;39.60
12426;DHT22;6277;49.824;9.562;2023-06-14T01:20:57;18.20;39.80
12426;DHT22;6277;49.824;9.562;2023-06-14T01:23:23;18.20;39.80
12426;DHT22;6277;49.824;9.562;2023-06-14T01:25:50;18.20;39.80
12426;DHT22;6277;49.824;9.562;2023-06-14T01:28:19;18.20;39.90
12426;DHT22;6277;49.824;9.562;2023-06-14T01:30:48;18.20;40.10
12426;DHT22;6277;49.824;9.562;2023-06-14T01:33:17;18.10;40.10
12426;DHT22;6277;49.824;9.562;2023-06-14T01:35:46;18.10;40.10
12426;DHT22;6277;49.824;9.562;2023-06-14T01:38:17;18.10;40.20
12426;DHT22;6277;49.824;9.562;2023-06-14T01:40:43;18.10;40.60
12426;DHT22;6277;49.824;9.562;2023-06-14T01:43:11;18.10;40.20
12426;DHT22;6277;49.824;9.562;2023-06-14T01:45:40;18.10;40.50
12426;DHT22;6277;49.824;9.562;2023-06-14T01:48:06;18.00;40.50
12426;DHT22;6277;49.824;9.562;2023-06-14T01:50:31;18.00;40.50
12426;DHT22;6277;49.824;9.562;2023-06-14T01:52:57;18.00;40.60
12426;DHT22;6277;49.824;9.562;2023-06-14T01:55:23;17.90;40.80
12426;DHT22;6277;49.824;9.562;2023-06-14T01:57:50;17.90;40.90
12426;DHT22;6277;49.824;9.562;2023-06-14T02:00:16;17.90;41.00
12426;DHT22;6277;49.824;9.562;2023-06-14T02:02:44;17.90;41.00
12426;DHT22;6277;49.824;9.562;2023-06-14T02:05:09;17.80;41.10
12426;DHT22;6277;49.824;9.562;2023-06-14T02:07:35;17.80;41.20
12426;DHT22;6277;49.824;9.562;2023-06-14T02:10:02;17.80;41.30
12426;DHT22;6277;49.824;9.562;2023-06-14T02:12:28;17.80;41.30
12426;DHT22;6277;49.824;9.562;2023-06-14T02:14:53;17.70;41.30
12426;DHT22;6277;49.824;9.562;2023-06-14T02:17:19;17.70;41.40
12426;DHT22;6277;49.824;9.562;2023-06-14T02:19:45;17.70;41.60
12426;DHT22;6277;49.824;9.562;2023-06-14T02:22:11;17.60;41.60
12426;DHT22;6277;49.824;9.562;2023-06-14T02:24:36;17.60;41.60
12426;DHT22;6277;49.824;9.562;2023-06-14T02:27:02;17.60;41.70
12426;DHT22;6277;49.824;9.562;2023-06-14T02:29:28;17.60;41.90
12426;DHT22;6277;49.824;9.562;2023-06-14T02:31:54;17.50;41.90
12426;DHT22;6277;49.824;9.562;2023-06-14T02:34:19;17.50;42.00
12426;DHT22;6277;49.824;9.562;2023-06-14T02:36:47;17.50;42.20
12426;DHT22;6277;49.824;9.562;2023-06-14T02:39:13;17.50;42.20
12426;DHT22;6277;49.824;9.562;2023-06-14T02:41:39;17.50;42.40
12426;DHT22;6277;49.824;9.562;2023-06-14T02:44:05;17.40;42.40
12426;DHT22;6277;49.824;9.562;2023-06-14T02:46:31;17.40;42.40
12426;DHT22;6277;49.824;9.562;2023-06-14T02:48:56;17.40;42.40
12426;DHT22;6277;49.824;9.562;2023-06-14T02:51:22;17.40;42.60
12426;DHT22;6277;49.824;9.562;2023-06-14T02:53:47;17.40;42.80
12426;DHT22;6277;49.824;9.562;2023-06-14T02:56:13;17.40;42.80
12426;DHT22;6277;49.824;9.562;2023-06-14T02:58:38;17.40;42.90
12426;DHT22;6277;49.824;9.562;2023-06-14T03:01:05;17.40;43.20
12426;DHT22;6277;49.824;9.562;2023-06-14T03:03:33;17.40;43.20
12426;DHT22;6277;49.824;9.562;2023-06-14T03:05:58;17.40;43.20
12426;DHT22;6277;49.824;9.562;2023-06-14T03:08:29;17.40;43.60
12426;DHT22;6277;49.824;9.562;2023-06-14T03:10:55;17.30;43.20
12426;DHT22;6277;49.824;9.562;2023-06-14T03:13:21;17.30;43.30
12426;DHT22;6277;49.824;9.562;2023-06-14T03:15:47;17.30;43.30
12426;DHT22;6277;49.824;9.562;2023-06-14T03:18:16;17.30;43.40
12426;DHT22;6277;49.824;9.562;2023-06-14T03:20:41;17.30;43.40
12426;DHT22;6277;49.824;9.562;2023-06-14T03:23:11;17.30;43.40
12426;DHT22;6277;49.824;9.562;2023-06-14T03:25:37;17.30;43.50
12426;DHT22;6277;49.824;9.562;2023-06-14T03:28:04;17.30;43.70
12426;DHT22;6277;49.824;9.562;2023-06-14T03:30:30;17.20;43.70
12426;DHT22;6277;49.824;9.562;2023-06-14T03:32:57;17.20;43.80
12426;DHT22;6277;49.824;9.562;2023-06-14T03:35:23;17.20;43.80
12426;DHT22;6277;49.824;9.562;2023-06-14T03:37:49;17.20;44.00
12426;DHT22;6277;49.824;9.562;2023-06-14T03:40:16;17.20;43.90
12426;DHT22;6277;49.824;9.562;2023-06-14T03:42:42;17.10;44.50
12426;DHT22;6277;49.824;9.562;2023-06-14T03:45:07;17.20;44.00
12426;DHT22;6277;49.824;9.562;2023-06-14T03:47:34;17.10;44.00
12426;DHT22;6277;49.824;9.562;2023-06-14T03:49:59;17.10;44.10
12426;DHT22;6277;49.824;9.562;2023-06-14T03:52:26;17.20;44.20
12426;DHT22;6277;49.824;9.562;2023-06-14T03:54:53;17.10;44.20
12426;DHT22;6277;49.824;9.562;2023-06-14T03:57:19;17.10;44.30
12426;DHT22;6277;49.824;9.562;2023-06-14T03:59:45;17.10;44.40
12426;DHT22;6277;49.824;9.562;2023-06-14T04:02:11;17.10;44.50
12426;DHT22;6277;49.824;9.562;2023-06-14T04:04:37;17.10;44.50
12426;DHT22;6277;49.824;9.562;2023-06-14T04:07:03;17.10;44.60
12426;DHT22;6277;49.824;9.562;2023-06-14T04:09:31;17.10;44.70
12426;DHT22;6277;49.824;9.562;2023-06-14T04:11:57;17.10;44.90
12426;DHT22;6277;49.824;9.562;2023-06-14T04:14:22;17.10;44.80
12426;DHT22;6277;49.824;9.562;2023-06-14T04:16:49;17.10;44.90
12426;DHT22;6277;49.824;9.562;2023-06-14T04:19:18;17.10;45.00
12426;DHT22;6277;49.824;9.562;2023-06-14T04:21:43;17.10;45.10
12426;DHT22;6277;49.824;9.562;2023-06-14T04:24:09;17.20;45.00
12426;DHT22;6277;49.824;9.562;2023-06-14T04:26:49;17.20;45.10
12426;DHT22;6277;49.824;9.562;2023-06-14T04:29:15;17.20;45.60
12426;DHT22;6277;49.824;9.562;2023-06-14T04:31:42;17.20;45.20
12426;DHT22;6277;49.824;9.562;2023-06-14T04:34:08;17.20;45.20
12426;DHT22;6277;49.824;9.562;2023-06-14T04:36:34;17.30;45.30
12426;DHT22;6277;49.824;9.562;2023-06-14T04:39:02;17.20;45.30
12426;DHT22;6277;49.824;9.562;2023-06-14T04:41:30;17.30;45.40
12426;DHT22;6277;49.824;9.562;2023-06-14T04:43:56;17.30;45.50
12426;DHT22;6277;49.824;9.562;2023-06-14T04:46:23;17.30;45.50
12426;DHT22;6277;49.824;9.562;2023-06-14T04:48:49;17.40;45.60
12426;DHT22;6277;49.824;9.562;2023-06-14T04:51:15;17.40;45.70
12426;DHT22;6277;49.824;9.562;2023-06-14T04:53:41;17.40;45.70
12426;DHT22;6277;49.824;9.562;2023-06-14T04:56:08;17.50;45.80
12426;DHT22;6277;49.824;9.562;2023-06-14T04:58:34;17.50;45.80
12426;DHT22;6277;49.824;9.562;2023-06-14T05:00:59;17.50;45.80
12426;DHT22;6277;49.824;9.562;2023-06-14T05:03:25;17.50;45.90
12426;DHT22;6277;49.824;9.562;2023-06-14T05:05:52;17.50;45.90
12426;DHT22;6277;49.824;9.562;2023-06-14T05:08:19;17.60;46.00
12426;DHT22;6277;49.824;9.562;2023-06-14T05:10:45;17.60;46.10
12426;DHT22;6277;49.824;9.562;2023-06-14T05:13:10;17.70;46.20
12426;DHT22;6277;49.824;9.562;2023-06-14T05:15:36;17.70;46.20
12426;DHT22;6277;49.824;9.562;2023-06-14T05:18:02;17.80;46.30
12426;DHT22;6277;49.824;9.562;2023-06-14T05:20:28;17.80;46.40
12426;DHT22;6277;49.824;9.562;2023-06-14T05:22:54;17.80;46.40
12426;DHT22;6277;49.824;9.562;2023-06-14T05:25:20;17.90;46.50
12426;DHT22;6277;49.824;9.562;2023-06-14T05:27:46;17.90;46.50
12426;DHT22;6277;49.824;9.562;2023-06-14T05:30:13;17.90;46.50
12426;DHT22;6277;49.824;9.562;2023-06-14T05:32:39;18.00;46.60
12426;DHT22;6277;49.824;9.562;2023-06-14T05:35:05;18.00;46.60
12426;DHT22;6277;49.824;9.562;2023-06-14T05:37:31;18.00;46.60
12426;DHT22;6277;49.824;9.562;2023-06-14T05:39:57;18.10;46.60
12426;DHT22;6277;49.824;9.562;2023-06-14T05:42:22;18.20;46.70
12426;DHT22;6277;49.824;9.562;2023-06-14T05:44:48;18.10;46.70
12426;DHT22;6277;49.824;9.562;2023-06-14T05:47:13;18.20;46.60
12426;DHT22;6277;49.824;9.562;2023-06-14T05:49:39;18.20;46.80
12426;DHT22;6277;49.824;9.562;2023-06-14T05:52:05;18.20;46.70
12426;DHT22;6277;49.824;9.562;2023-06-14T05:54:31;18.30;46.80
12426;DHT22;6277;49.824;9.562;2023-06-14T05:56:56;18.30;46.90
12426;DHT22;6277;49.824;9.562;2023-06-14T05:59:29;18.40;47.00
12426;DHT22;6277;49.824;9.562;2023-06-14T06:01:55;18.40;46.90
12426;DHT22;6277;49.824;9.562;2023-06-14T06:04:20;18.40;46.80
12426;DHT22;6277;49.824;9.562;2023-06-14T06:06:46;18.50;46.80
12426;DHT22;6277;49.824;9.562;2023-06-14T06:09:13;18.50;46.80
12426;DHT22;6277;49.824;9.562;2023-06-14T06:11:40;18.60;46.90
12426;DHT22;6277;49.824;9.562;2023-06-14T06:14:05;18.60;46.80
12426;DHT22;6277;49.824;9.562;2023-06-14T06:16:31;18.70;46.90
12426;DHT22;6277;49.824;9.562;2023-06-14T06:18:57;18.70;46.90
12426;DHT22;6277;49.824;9.562;2023-06-14T06:21:22;18.70;46.80
12426;DHT22;6277;49.824;9.562;2023-06-14T06:23:48;18.80;46.80
12426;DHT22;6277;49.824;9.562;2023-06-14T06:26:13;18.80;46.80
12426;DHT22;6277;49.824;9.562;2023-06-14T06:28:39;18.90;46.90
12426;DHT22;6277;49.824;9.562;2023-06-14T06:31:04;19.00;46.90
12426;DHT22;6277;49.824;9.562;2023-06-14T06:33:30;19.00;46.80
12426;DHT22;6277;49.824;9.562;2023-06-14T06:35:56;19.10;46.90
12426;DHT22;6277;49.824;9.562;2023-06-14T06:38:21;19.10;46.90
12426;DHT22;6277;49.824;9.562;2023-06-14T06:40:47;19.10;46.90
12426;DHT22;6277;49.824;9.562;2023-06-14T06:43:12;19.20;46.90
12426;DHT22;6277;49.824;9.562;2023-06-14T06:45:42;19.20;46.80
12426;DHT22;6277;49.824;9.562;2023-06-14T06:48:08;19.30;46.80
12426;DHT22;6277;49.824;9.562;2023-06-14T06:50:35;19.40;46.80
12426;DHT22;6277;49.824;9.562;2023-06-14T06:53:01;19.40;46.80
12426;DHT22;6277;49.824;9.562;2023-06-14T06:55:26;19.40;46.80
12426;DHT22;6277;49.824;9.562;2023-06-14T06:57:52;19.50;46.80
12426;DHT22;6277;49.824;9.562;2023-06-14T07:00:19;19.60;46.80
12426;DHT22;6277;49.824;9.562;2023-06-14T07:02:45;19.60;46.80
12426;DHT22;6277;49.824;9.562;2023-06-14T07:05:11;19.70;46.90
12426;DHT22;6277;49.824;9.562;2023-06-14T07:07:36;19.70;46.80
12426;DHT22;6277;49.824;9.562;2023-06-14T07:10:03;19.80;46.80
12426;DHT22;6277;49.824;9.562;2023-06-14T07:12:33;19.90;46.80
12426;DHT22;6277;49.824;9.562;2023-06-14T07:14:59;19.90;46.60
12426;DHT22;6277;49.824;9.562;2023-06-14T07:17:25;20.00;46.60
12426;DHT22;6277;49.824;9.562;2023-06-14T07:19:50;20.00;46.60
12426;DHT22;6277;49.824;9.562;2023-06-14T07:22:16;20.10;46.60
12426;DHT22;6277;49.824;9.562;2023-06-14T07:24:43;20.10;46.60
12426;DHT22;6277;49.824;9.562;2023-06-14T07:27:08;20.20;46.80
12426;DHT22;6277;49.824;9.562;2023-06-14T07:29:34;20.20;46.70
12426;DHT22;6277;49.824;9.562;2023-06-14T07:31:59;20.30;46.70
12426;DHT22;6277;49.824;9.562;2023-06-14T07:34:25;20.40;46.70
12426;DHT22;6277;49.824;9.562;2023-06-14T07:36:51;20.40;46.60
12426;DHT22;6277;49.824;9.562;2023-06-14T07:39:17;20.50;46.60
12426;DHT22;6277;49.824;9.562;2023-06-14T07:41:42;20.50;46.50
12426;DHT22;6277;49.824;9.562;2023-06-14T07:44:08;20.60;46.50
12426;DHT22;6277;49.824;9.562;2023-06-14T07:46:33;20.70;46.40
12426;DHT22;6277;49.824;9.562;2023-06-14T07:49:00;20.70;46.30
12426;DHT22;6277;49.824;9.562;2023-06-14T07:51:25;20.80;46.40
12426;DHT22;6277;49.824;9.562;2023-06-14T07:53:51;20.90;46.40
12426;DHT22;6277;49.824;9.562;2023-06-14T07:56:17;20.90;46.40
12426;DHT22;6277;49.824;9.562;2023-06-14T07:58:42;21.00;46.40
12426;DHT22;6277;49.824;9.562;2023-06-14T08:01:08;21.00;46.30
12426;DHT22;6277;49.824;9.562;2023-06-14T08:03:34;21.10;46.20
12426;DHT22;6277;49.824;9.562;2023-06-14T08:06:00;21.20;46.10
12426;DHT22;6277;49.824;9.562;2023-06-14T08:08:26;21.20;45.90
12426;DHT22;6277;49.824;9.562;2023-06-14T08:10:51;21.30;45.90
12426;DHT22;6277;49.824;9.562;2023-06-14T08:13:17;21.30;45.80
12426;DHT22;6277;49.824;9.562;2023-06-14T08:15:43;21.30;45.80
12426;DHT22;6277;49.824;9.562;2023-06-14T08:18:09;21.40;45.80
12426;DHT22;6277;49.824;9.562;2023-06-14T08:20:34;21.40;45.70
12426;DHT22;6277;49.824;9.562;2023-06-14T08:23:02;21.50;45.80
12426;DHT22;6277;49.824;9.562;2023-06-14T08:25:27;21.50;45.70
12426;DHT22;6277;49.824;9.562;2023-06-14T08:27:53;21.50;45.70
12426;DHT22;6277;49.824;9.562;2023-06-14T08:30:18;21.60;45.60
12426;DHT22;6277;49.824;9.562;2023-06-14T08:32:44;21.60;45.60
12426;DHT22;6277;49.824;9.562;2023-06-14T08:35:10;21.70;45.40
12426;DHT22;6277;49.824;9.562;2023-06-14T08:37:39;21.80;45.50
12426;DHT22;6277;49.824;9.562;2023-06-14T08:40:17;21.80;45.40
12426;DHT22;6277;49.824;9.562;2023-06-14T08:42:45;21.80;45.30
12426;DHT22;6277;49.824;9.562;2023-06-14T08:45:12;21.90;45.40
12426;DHT22;6277;49.824;9.562;2023-06-14T08:47:38;22.00;45.20
12426;DHT22;6277;49.824;9.562;2023-06-14T08:50:04;22.00;45.10
12426;DHT22;6277;49.824;9.562;2023-06-14T08:52:33;22.10;45.10
12426;DHT22;6277;49.824;9.562;2023-06-14T08:55:06;22.20;45.10
12426;DHT22;6277;49.824;9.562;2023-06-14T08:57:32;22.30;45.10
12426;DHT22;6277;49.824;9.562;2023-06-14T09:00:01;22.40;45.10
12426;DHT22;6277;49.824;9.562;2023-06-14T09:02:30;22.50;44.90
12426;DHT22;6277;49.824;9.562;2023-06-14T09:04:56;22.70;44.80
12426;DHT22;6277;49.824;9.562;2023-06-14T09:07:24;22.80;44.80
12426;DHT22;6277;49.824;9.562;2023-06-14T09:10:12;22.90;44.70
12426;DHT22;6277;49.824;9.562;2023-06-14T09:12:38;23.00;44.20
12426;DHT22;6277;49.824;9.562;2023-06-14T09:15:05;23.10;44.40
12426;DHT22;6277;49.824;9.562;2023-06-14T09:17:34;23.20;44.10
12426;DHT22;6277;49.824;9.562;2023-06-14T09:20:01;23.30;43.80
12426;DHT22;6277;49.824;9.562;2023-06-14T09:22:29;23.40;44.00
12426;DHT22;6277;49.824;9.562;2023-06-14T09:24:55;23.50;43.70
12426;DHT22;6277;49.824;9.562;2023-06-14T09:27:21;23.50;43.50
12426;DHT22;6277;49.824;9.562;2023-06-14T09:29:47;23.60;43.40
12426;DHT22;6277;49.824;9.562;2023-06-14T09:32:12;23.60;43.40
12426;DHT22;6277;49.824;9.562;2023-06-14T09:34:38;23.70;43.30
12426;DHT22;6277;49.824;9.562;2023-06-14T09:37:03;23.80;43.10
12426;DHT22;6277;49.824;9.562;2023-06-14T09:39:29;23.90;43.00
12426;DHT22;6277;49.824;9.562;2023-06-14T09:41:55;23.90;42.60
12426;DHT22;6277;49.824;9.562;2023-06-14T09:44:21;23.90;42.50
12426;DHT22;6277;49.824;9.562;2023-06-14T09:46:50;24.00;42.50
12426;DHT22;6277;49.824;9.562;2023-06-14T09:49:16;24.00;42.60
12426;DHT22;6277;49.824;9.562;2023-06-14T09:51:43;24.00;42.50
12426;DHT22;6277;49.824;9.562;2023-06-14T09:54:15;24.10;42.40
12426;DHT22;6277;49.824;9.562;2023-06-14T09:56:44;24.10;42.20
12426;DHT22;6277;49.824;9.562;2023-06-14T09:59:10;24.10;42.20
12426;DHT22;6277;49.824;9.562;2023-06-14T10:01:41;24.20;42.10
12426;DHT22;6277;49.824;9.562;2023-06-14T10:04:09;24.20;41.90
12426;DHT22;6277;49.824;9.562;2023-06-14T10:06:43;24.20;41.90
12426;DHT22;6277;49.824;9.562;2023-06-14T10:09:10;24.20;41.60
12426;DHT22;6277;49.824;9.562;2023-06-14T10:11:37;24.30;41.50
12426;DHT22;6277;49.824;9.562;2023-06-14T10:14:09;24.30;42.00
12426;DHT22;6277;49.824;9.562;2023-06-14T10:16:39;24.40;41.80
12426;DHT22;6277;49.824;9.562;2023-06-14T10:19:27;24.50;41.90
12426;DHT22;6277;49.824;9.562;2023-06-14T10:22:05;24.60;41.80
12426;DHT22;6277;49.824;9.562;2023-06-14T10:24:33;24.70;41.70
12426;DHT22;6277;49.824;9.562;2023-06-14T10:27:01;24.80;41.40
12426;DHT22;6277;49.824;9.562;2023-06-14T10:29:27;24.90;41.10
12426;DHT22;6277;49.824;9.562;2023-06-14T10:31:58;24.90;40.80
12426;DHT22;6277;49.824;9.562;2023-06-14T10:34:28;25.00;40.80
12426;DHT22;6277;49.824;9.562;2023-06-14T10:37:02;25.00;40.40
12426;DHT22;6277;49.824;9.562;2023-06-14T10:39:28;25.00;40.30
12426;DHT22;6277;49.824;9.562;2023-06-14T10:41:56;25.10;40.40
12426;DHT22;6277;49.824;9.562;2023-06-14T10:46:54;25.20;40.30
12426;DHT22;6277;49.824;9.562;2023-06-14T10:49:20;25.20;40.00
12426;DHT22;6277;49.824;9.562;2023-06-14T10:52:02;25.20;40.10
12426;DHT22;6277;49.824;9.562;2023-06-14T10:54:28;25.30;39.90
12426;DHT22;6277;49.824;9.562;2023-06-14T10:56:54;25.30;39.90
12426;DHT22;6277;49.824;9.562;2023-06-14T10:59:20;25.30;39.80
12426;DHT22;6277;49.824;9.562;2023-06-14T11:04:50;25.50;39.80
12426;DHT22;6277;49.824;9.562;2023-06-14T11:12:38;26.00;39.00
12426;DHT22;6277;49.824;9.562;2023-06-14T11:15:05;26.00;39.90
12426;DHT22;6277;49.824;9.562;2023-06-14T11:17:33;26.20;39.70
12426;DHT22;6277;49.824;9.562;2023-06-14T11:20:12;26.40;39.30
12426;DHT22;6277;49.824;9.562;2023-06-14T11:22:44;26.60;38.70
12426;DHT22;6277;49.824;9.562;2023-06-14T11:25:12;26.70;39.00
12426;DHT22;6277;49.824;9.562;2023-06-14T11:27:37;26.80;38.60
12426;DHT22;6277;49.824;9.562;2023-06-14T11:30:06;26.90;38.50
12426;DHT22;6277;49.824;9.562;2023-06-14T11:32:32;27.00;38.30
12426;DHT22;6277;49.824;9.562;2023-06-14T11:34:58;27.10;38.10
12426;DHT22;6277;49.824;9.562;2023-06-14T11:37:29;27.20;37.90
12426;DHT22;6277;49.824;9.562;2023-06-14T11:39:58;27.30;37.30
12426;DHT22;6277;49.824;9.562;2023-06-14T11:42:26;27.40;37.50
12426;DHT22;6277;49.824;9.562;2023-06-14T11:44:53;27.50;37.50
12426;DHT22;6277;49.824;9.562;2023-06-14T11:47:19;27.60;37.50
12426;DHT22;6277;49.824;9.562;2023-06-14T11:49:45;27.80;37.60
12426;DHT22;6277;49.824;9.562;2023-06-14T11:52:11;27.90;37.40
12426;DHT22;6277;49.824;9.562;2023-06-14T11:54:37;28.00;37.30
12426;DHT22;6277;49.824;9.562;2023-06-14T11:57:03;28.10;36.90
12426;DHT22;6277;49.824;9.562;2023-06-14T11:59:30;28.30;36.60
12426;DHT22;6277;49.824;9.562;2023-06-14T12:01:56;28.40;36.60
12426;DHT22;6277;49.824;9.562;2023-06-14T12:04:29;28.50;36.30
12426;DHT22;6277;49.824;9.562;2023-06-14T12:06:55;28.60;35.90
12426;DHT22;6277;49.824;9.562;2023-06-14T12:09:23;28.70;36.30
12426;DHT22;6277;49.824;9.562;2023-06-14T12:11:59;28.80;36.10
12426;DHT22;6277;49.824;9.562;2023-06-14T12:14:30;28.90;36.00
12426;DHT22;6277;49.824;9.562;2023-06-14T12:17:04;29.10;35.50
12426;DHT22;6277;49.824;9.562;2023-06-14T12:19:41;29.30;35.10
12426;DHT22;6277;49.824;9.562;2023-06-14T12:22:09;29.40;35.00
12426;DHT22;6277;49.824;9.562;2023-06-14T12:24:35;29.50;34.80
12426;DHT22;6277;49.824;9.562;2023-06-14T12:27:01;29.60;34.50
12426;DHT22;6277;49.824;9.562;2023-06-14T12:29:28;29.70;34.40
12426;DHT22;6277;49.824;9.562;2023-06-14T12:31:54;29.70;34.00
12426;DHT22;6277;49.824;9.562;2023-06-14T12:34:25;29.70;33.90
12426;DHT22;6277;49.824;9.562;2023-06-14T12:36:52;29.60;33.60
12426;DHT22;6277;49.824;9.562;2023-06-14T12:39:18;29.50;33.60
12426;DHT22;6277;49.824;9.562;2023-06-14T12:41:44;29.40;33.50
12426;DHT22;6277;49.824;9.562;2023-06-14T12:44:13;29.30;33.60
12426;DHT22;6277;49.824;9.562;2023-06-14T12:46:42;29.30;33.30
12426;DHT22;6277;49.824;9.562;2023-06-14T12:49:12;29.30;33.30
12426;DHT22;6277;49.824;9.562;2023-06-14T12:51:38;29.30;33.70
12426;DHT22;6277;49.824;9.562;2023-06-14T12:54:05;29.20;33.20
12426;DHT22;6277;49.824;9.562;2023-06-14T12:56:30;29.20;33.00
12426;DHT22;6277;49.824;9.562;2023-06-14T12:58:56;29.20;33.10
12426;DHT22;6277;49.824;9.562;2023-06-14T13:01:21;29.10;33.00
12426;DHT22;6277;49.824;9.562;2023-06-14T13:03:47;29.10;33.00
12426;DHT22;6277;49.824;9.562;2023-06-14T13:06:13;29.10;33.20
12426;DHT22;6277;49.824;9.562;2023-06-14T13:08:39;29.10;32.80
12426;DHT22;6277;49.824;9.562;2023-06-14T13:11:04;29.10;32.90
12426;DHT22;6277;49.824;9.562;2023-06-14T13:13:30;29.10;32.90
12426;DHT22;6277;49.824;9.562;2023-06-14T13:15:56;29.20;32.80
12426;DHT22;6277;49.824;9.562;2023-06-14T13:18:21;29.20;32.90
12426;DHT22;6277;49.824;9.562;2023-06-14T13:20:47;29.30;32.70
12426;DHT22;6277;49.824;9.562;2023-06-14T13:23:13;29.40;32.90
12426;DHT22;6277;49.824;9.562;2023-06-14T13:25:39;29.60;32.80
12426;DHT22;6277;49.824;9.562;2023-06-14T13:28:05;29.70;32.60
12426;DHT22;6277;49.824;9.562;2023-06-14T13:30:32;29.90;32.60
12426;DHT22;6277;49.824;9.562;2023-06-14T13:32:58;30.10;32.30
12426;DHT22;6277;49.824;9.562;2023-06-14T13:35:24;30.20;32.00
12426;DHT22;6277;49.824;9.562;2023-06-14T13:37:50;30.30;31.80
12426;DHT22;6277;49.824;9.562;2023-06-14T13:40:15;30.40;31.60
12426;DHT22;6277;49.824;9.562;2023-06-14T13:42:41;30.60;31.90
12426;DHT22;6277;49.824;9.562;2023-06-14T13:45:08;30.70;32.10
12426;DHT22;6277;49.824;9.562;2023-06-14T13:47:34;30.80;31.70
12426;DHT22;6277;49.824;9.562;2023-06-14T13:50:00;31.00;31.60
12426;DHT22;6277;49.824;9.562;2023-06-14T13:52:25;31.10;31.20
12426;DHT22;6277;49.824;9.562;2023-06-14T13:54:51;31.30;31.70
12426;DHT22;6277;49.824;9.562;2023-06-14T13:57:17;31.50;31.10
12426;DHT22;6277;49.824;9.562;2023-06-14T13:59:43;31.60;30.70
12426;DHT22;6277;49.824;9.562;2023-06-14T14:02:12;31.80;30.30
12426;DHT22;6277;49.824;9.562;2023-06-14T14:04:39;31.90;30.20
12426;DHT22;6277;49.824;9.562;2023-06-14T14:07:05;32.00;30.10
12426;DHT22;6277;49.824;9.562;2023-06-14T14:09:32;32.10;30.10
12426;DHT22;6277;49.824;9.562;2023-06-14T14:11:58;32.20;30.20
12426;DHT22;6277;49.824;9.562;2023-06-14T14:14:24;32.50;30.20
12426;DHT22;6277;49.824;9.562;2023-06-14T14:16:50;32.60;29.90
12426;DHT22;6277;49.824;9.562;2023-06-14T14:19:17;32.70;29.50
12426;DHT22;6277;49.824;9.562;2023-06-14T14:21:44;32.80;29.30
12426;DHT22;6277;49.824;9.562;2023-06-14T14:24:10;32.80;29.20
12426;DHT22;6277;49.824;9.562;2023-06-14T14:26:35;32.80;29.20
12426;DHT22;6277;49.824;9.562;2023-06-14T14:29:01;32.80;29.10
12426;DHT22;6277;49.824;9.562;2023-06-14T14:31:28;32.90;29.00
12426;DHT22;6277;49.824;9.562;2023-06-14T14:33:53;33.00;29.00
12426;DHT22;6277;49.824;9.562;2023-06-14T14:36:19;33.00;28.90
12426;DHT22;6277;49.824;9.562;2023-06-14T14:38:44;33.20;28.70
12426;DHT22;6277;49.824;9.562;2023-06-14T14:41:10;33.30;28.70
12426;DHT22;6277;49.824;9.562;2023-06-14T14:43:36;33.50;28.70
12426;DHT22;6277;49.824;9.562;2023-06-14T14:46:01;33.70;28.70
12426;DHT22;6277;49.824;9.562;2023-06-14T14:48:27;33.80;28.30
12426;DHT22;6277;49.824;9.562;2023-06-14T14:50:53;33.80;28.00
12426;DHT22;6277;49.824;9.562;2023-06-14T14:53:18;33.70;27.70
12426;DHT22;6277;49.824;9.562;2023-06-14T14:55:44;33.50;27.50
12426;DHT22;6277;49.824;9.562;2023-06-14T14:58:12;33.20;27.50
12426;DHT22;6277;49.824;9.562;2023-06-14T15:00:37;33.00;27.50
12426;DHT22;6277;49.824;9.562;2023-06-14T15:03:03;32.60;27.40
12426;DHT22;6277;49.824;9.562;2023-06-14T15:05:29;32.30;27.60
12426;DHT22;6277;49.824;9.562;2023-06-14T15:07:54;32.10;27.70
12426;DHT22;6277;49.824;9.562;2023-06-14T15:10:20;32.00;27.90
12426;DHT22;6277;49.824;9.562;2023-06-14T15:12:45;32.00;28.10
12426;DHT22;6277;49.824;9.562;2023-06-14T15:15:11;32.10;28.80
12426;DHT22;6277;49.824;9.562;2023-06-14T15:17:36;32.30;28.30
12426;DHT22;6277;49.824;9.562;2023-06-14T15:20:02;32.60;28.40
12426;DHT22;6277;49.824;9.562;2023-06-14T15:22:28;32.90;28.40
12426;DHT22;6277;49.824;9.562;2023-06-14T15:24:53;33.20;28.00
12426;DHT22;6277;49.824;9.562;2023-06-14T15:27:19;33.60;28.20
12426;DHT22;6277;49.824;9.562;2023-06-14T15:29:44;33.90;28.10
12426;DHT22;6277;49.824;9.562;2023-06-14T15:32:10;34.30;27.70
12426;DHT22;6277;49.824;9.562;2023-06-14T15:34:36;34.70;27.60
12426;DHT22;6277;49.824;9.562;2023-06-14T15:37:03;35.10;27.50
12426;DHT22;6277;49.824;9.562;2023-06-14T15:39:29;35.50;27.20
12426;DHT22;6277;49.824;9.562;2023-06-14T15:41:57;35.90;27.00
12426;DHT22;6277;49.824;9.562;2023-06-14T15:44:23;36.30;26.70
12426;DHT22;6277;49.824;9.562;2023-06-14T15:46:49;36.60;26.30
12426;DHT22;6277;49.824;9.562;2023-06-14T15:49:14;36.90;26.10
12426;DHT22;6277;49.824;9.562;2023-06-14T15:51:40;37.10;25.90
12426;DHT22;6277;49.824;9.562;2023-06-14T15:54:06;37.10;25.60
12426;DHT22;6277;49.824;9.562;2023-06-14T15:56:32;37.10;25.30